Time;durP1;ratioP1;P1;durP2;ratioP2;P2;SDS_P1;SDS_P2;PMS_P1;PMS_P2;Temp;Humidity;BMP_temperature;BMP_pressure;BME280_temperature;BME280_humidity;BME280_pressure;Samples;Min_cycle;Max_cycle;Signal;HPM_P1;HPM_P2
2022/11/26 00:00:54;;;;;;;0.00;0.00;;;;;;;15.31;66.95;102504.94;2083967;28;20061;-75
2022/11/26 00:02:15;;;;;;;0.00;0.00;;;;;;;15.25;66.79;102514.44;2084725;28;20064;-74
2022/11/26 00:03:17;;;;;;;;;;;;;;;15.08;67.25;102506.38;2089544;28;20087;-74
2022/11/26 00:04:19;;;;;;;0.00;0.00;;;;;;;15.19;67.20;102508.38;2082418;28;19949;-74
2022/11/26 00:05:23;;;;;;;0.00;0.00;;;;;;;15.24;66.97;102510.91;2077576;28;20497;-74
2022/11/26 00:06:30;;;;;;;0.00;0.00;;;;;;;15.24;66.98;102516.34;2079237;28;20057;-74
2022/11/26 00:07:33;;;;;;;0.00;0.00;;;;;;;15.26;66.98;102518.72;2076055;28;20465;-74
2022/11/26 00:08:35;;;;;;;0.00;0.00;;;;;;;15.26;66.87;102518.72;2074607;28;20539;-74
2022/11/26 00:09:40;;;;;;;0.00;0.00;;;;;;;15.27;66.87;102512.94;2082856;28;20821;-75
2022/11/26 00:10:42;;;;;;;0.00;0.00;;;;;;;15.27;66.89;102514.91;2082771;28;20057;-74
2022/11/26 00:11:45;;;;;;;0.00;0.00;;;;;;;15.27;66.87;102520.34;2085354;28;20123;-75
2022/11/26 00:12:47;;;;;;;0.00;0.00;;;;;;;15.27;66.89;102521.13;2090860;28;20064;-75
2022/11/26 00:13:50;;;;;;;0.00;0.00;;;;;;;15.27;66.97;102521.13;2091245;28;20080;-74
2022/11/26 00:14:52;;;;;;;0.00;0.00;;;;;;;15.27;66.87;102515.69;2089233;28;20079;-75
2022/11/26 00:15:56;;;;;;;0.00;0.00;;;;;;;15.27;66.79;102514.91;2089810;28;20068;-73
2022/11/26 00:16:57;;;;;;;0.00;0.00;;;;;;;15.27;66.89;102515.69;2082471;28;20172;-74
2022/11/26 00:18:00;;;;;;;0.00;0.00;;;;;;;15.28;66.89;102519.19;2086336;28;20078;-74
2022/11/26 00:19:02;;;;;;;0.00;0.00;;;;;;;15.27;66.86;102521.13;2085300;28;20104;-74
2022/11/26 00:20:06;;;;;;;0.00;0.00;;;;;;;15.28;66.60;102519.19;2076473;28;20054;-74
2022/11/26 00:21:15;;;;;;;0.00;0.00;;;;;;;15.27;66.35;102521.13;2084989;28;20065;-74
2022/11/26 00:22:24;;;;;;;0.00;0.00;;;;;;;15.26;66.62;102524.97;2095972;28;20059;-74
2022/11/26 00:23:28;;;;;;;0.00;0.00;;;;;;;15.27;66.76;102515.69;2084369;28;20084;-75
2022/11/26 00:24:30;;;;;;;0.00;0.00;;;;;;;15.26;66.84;102524.19;2079003;28;20053;-74
2022/11/26 00:25:41;;;;;;;0.00;0.00;;;;;;;15.26;66.83;102526.91;2086801;28;20705;-74
2022/11/26 00:26:42;;;;;;;0.00;0.00;;;;;;;15.26;67.06;102524.97;2083418;28;20064;-74
2022/11/26 00:27:46;;;;;;;0.00;0.00;;;;;;;15.26;66.77;102527.69;2083795;28;20053;-75
2022/11/26 00:28:50;;;;;;;0.00;0.00;;;;;;;15.28;66.72;102528.16;2079401;28;20057;-74
2022/11/26 00:29:53;;;;;;;0.00;0.00;;;;;;;15.27;66.60;102532.00;2079469;28;20064;-74
2022/11/26 00:30:58;;;;;;;0.00;0.00;;;;;;;15.28;66.76;102533.63;2090084;28;20087;-74
2022/11/26 00:32:00;;;;;;;0.00;0.00;;;;;;;15.26;66.76;102530.41;2082247;28;20632;-74
2022/11/26 00:33:02;;;;;;;0.00;0.00;;;;;;;15.26;66.75;102533.16;2076098;28;20057;-74
2022/11/26 00:34:05;;;;;;;0.00;0.00;;;;;;;15.27;66.67;102537.44;2082552;28;20060;-74
2022/11/26 00:35:07;;;;;;;0.00;0.00;;;;;;;15.28;66.47;102533.63;2071254;28;20512;-74
2022/11/26 00:36:18;;;;;;;0.00;0.00;;;;;;;15.27;66.48;102532.00;2065292;28;20058;-74
2022/11/26 00:37:20;;;;;;;;;;;;;;;15.08;66.88;102534.38;2086044;28;20512;-74
2022/11/26 00:38:24;;;;;;;0.00;0.00;;;;;;;15.19;66.79;102534.81;2083683;28;19921;-75
2022/11/26 00:39:26;;;;;;;0.00;0.00;;;;;;;15.21;66.84;102538.78;2072571;28;20050;-74
2022/11/26 00:40:32;;;;;;;0.00;0.00;;;;;;;15.24;66.82;102538.09;2079484;28;20049;-74
2022/11/26 00:41:37;;;;;;;0.00;0.00;;;;;;;15.23;66.45;102536.53;2087170;28;20104;-74
2022/11/26 00:42:39;;;;;;;0.00;0.00;;;;;;;15.23;66.41;102536.53;2082552;28;20826;-75
2022/11/26 00:43:41;;;;;;;0.00;0.00;;;;;;;15.23;66.36;102547.41;2079570;28;20065;-75
2022/11/26 00:44:44;;;;;;;0.00;0.00;;;;;;;15.23;66.69;102541.97;2087460;28;20085;-74
2022/11/26 00:45:49;;;;;;;0.00;0.00;;;;;;;15.25;66.59;102549.81;2094550;28;20052;-74
2022/11/26 00:46:52;;;;;;;0.00;0.00;;;;;;;15.25;66.36;102550.59;2095409;28;20128;-74
2022/11/26 00:47:56;;;;;;;0.00;0.00;;;;;;;15.24;66.49;102551.72;2093434;28;20059;-74
2022/11/26 00:48:58;;;;;;;0.00;0.00;;;;;;;15.24;66.56;102557.16;2087270;28;20080;-74
2022/11/26 00:50:00;;;;;;;0.00;0.00;;;;;;;15.25;66.54;102561.50;2070894;28;20081;-74
2022/11/26 00:51:03;;;;;;;0.00;0.00;;;;;;;15.26;66.30;102562.25;2069657;28;20061;-75
2022/11/26 00:52:19;;;;;;;0.00;0.00;;;;;;;15.24;66.15;102554.44;2081711;28;20092;-74
2022/11/26 00:53:25;;;;;;;0.00;0.00;;;;;;;15.24;66.46;102559.09;2076963;28;20160;-74
2022/11/26 00:54:27;;;;;;;0.00;0.00;;;;;;;15.23;66.38;102552.84;2076712;28;20061;-74
2022/11/26 00:55:34;;;;;;;0.00;0.00;;;;;;;15.25;66.44;102549.81;2085753;28;20056;-74
2022/11/26 00:56:38;;;;;;;0.00;0.00;;;;;;;15.25;66.29;102556.06;2079244;28;20057;-74
2022/11/26 00:57:41;;;;;;;0.00;0.00;;;;;;;15.24;66.36;102554.44;2071712;28;20062;-74
2022/11/26 00:58:43;;;;;;;0.00;0.00;;;;;;;15.25;66.04;102556.06;2085656;28;20829;-74
2022/11/26 00:59:46;;;;;;;0.00;0.00;;;;;;;15.25;66.33;102561.50;2079158;28;20462;-74
2022/11/26 01:00:48;;;;;;;0.00;0.00;;;;;;;15.25;66.17;102560.69;2076290;28;20053;-74
2022/11/26 01:01:51;;;;;;;0.00;0.00;;;;;;;15.25;66.07;102566.94;2077369;28;20053;-74
2022/11/26 01:02:54;;;;;;;0.00;0.00;;;;;;;15.25;65.96;102560.69;2077690;28;20093;-74
2022/11/26 01:03:57;;;;;;;0.00;0.00;;;;;;;15.25;65.97;102558.78;2084450;28;20158;-74
2022/11/26 01:04:59;;;;;;;0.00;0.00;;;;;;;15.25;66.23;102561.50;2095085;28;20527;-74
2022/11/26 01:06:02;;;;;;;0.00;0.00;;;;;;;15.26;66.21;102567.72;2088955;28;20528;-75
2022/11/26 01:07:04;;;;;;;0.00;0.00;;;;;;;15.26;66.04;102563.06;2074734;28;20072;-74
2022/11/26 01:08:18;;;;;;;0.00;0.00;;;;;;;15.23;65.95;102562.94;2075366;28;20049;-74
2022/11/26 01:09:21;;;;;;;0.00;0.00;;;;;;;15.24;65.98;102565.31;2085202;28;20065;-74
2022/11/26 01:10:26;;;;;;;0.00;0.00;;;;;;;15.25;66.05;102558.78;2075389;28;20057;-74
2022/11/26 01:11:28;;;;;;;0.00;0.00;;;;;;;15.24;65.77;102557.16;2069378;28;20049;-74
2022/11/26 01:12:33;;;;;;;0.00;0.00;;;;;;;15.25;66.10;102557.97;2077746;28;20061;-74
2022/11/26 01:13:35;;;;;;;0.00;0.00;;;;;;;15.23;65.72;102563.75;2090755;28;20552;-74
2022/11/26 01:14:37;;;;;;;0.00;0.00;;;;;;;15.25;65.79;102560.69;2079715;28;20057;-74
2022/11/26 01:15:40;;;;;;;0.00;0.00;;;;;;;15.23;65.71;102563.75;2085454;28;20128;-74
2022/11/26 01:16:44;;;;;;;0.00;0.00;;;;;;;15.25;65.69;102566.13;2094126;28;20416;-74
2022/11/26 01:17:46;;;;;;;0.00;0.00;;;;;;;15.23;65.57;102563.75;2079629;28;20532;-74
2022/11/26 01:18:51;;;;;;;0.00;0.00;;;;;;;15.25;65.42;102566.94;2084470;28;20057;-75
2022/11/26 01:19:53;;;;;;;0.00;0.00;;;;;;;15.24;65.62;102570.00;2083535;28;20052;-74
2022/11/26 01:20:56;;;;;;;0.00;0.00;;;;;;;15.24;65.52;102564.53;2088506;28;20071;-74
2022/11/26 01:21:57;;;;;;;0.00;0.00;;;;;;;15.23;65.55;102569.19;2080662;28;20057;-74
2022/11/26 01:23:00;;;;;;;0.00;0.00;;;;;;;15.24;65.50;102568.03;2084309;28;20090;-74
2022/11/26 01:24:02;;;;;;;0.00;0.00;;;;;;;15.23;65.60;102571.09;2089714;28;20083;-74
2022/11/26 01:25:05;;;;;;;0.00;0.00;;;;;;;15.23;65.54;102577.34;2088500;28;20057;-74
2022/11/26 01:26:13;;;;;;;0.00;0.00;;;;;;;15.23;65.28;102565.66;2086409;28;20436;-74
2022/11/26 01:27:19;;;;;;;0.00;0.00;;;;;;;15.23;65.50;102577.34;2080579;28;20099;-74
2022/11/26 01:28:22;;;;;;;0.00;0.00;;;;;;;15.23;65.40;102581.97;2092181;28;20057;-75
2022/11/26 01:29:24;;;;;;;0.00;0.00;;;;;;;15.23;65.25;102580.06;2089552;28;20084;-74
2022/11/26 01:30:29;;;;;;;0.00;0.00;;;;;;;15.24;65.17;102587.09;2079373;28;20060;-74
2022/11/26 01:31:33;;;;;;;0.00;0.00;;;;;;;15.23;65.38;102590.13;2081985;28;20042;-73
2022/11/26 01:32:34;;;;;;;0.00;0.00;;;;;;;15.23;65.49;102592.88;2095682;28;20087;-74
2022/11/26 01:33:37;;;;;;;0.00;0.00;;;;;;;15.24;65.42;102597.19;2075928;28;20064;-74
2022/11/26 01:34:39;;;;;;;0.00;0.00;;;;;;;15.23;65.10;102595.59;2062714;28;20054;-74
2022/11/26 01:35:42;;;;;;;0.00;0.00;;;;;;;15.23;65.19;102588.22;2078480;28;20144;-75
2022/11/26 01:36:44;;;;;;;0.00;0.00;;;;;;;15.23;65.34;102592.88;2088638;28;20509;-74
2022/11/26 01:37:46;;;;;;;0.00;0.00;;;;;;;15.23;65.12;102590.13;2081201;28;20065;-75
2022/11/26 01:38:50;;;;;;;0.00;0.00;;;;;;;15.23;65.15;102590.94;2084667;28;20059;-74
2022/11/26 01:39:53;;;;;;;0.00;0.00;;;;;;;15.22;65.19;102594.81;2081639;28;20049;-74
2022/11/26 01:41:10;;;;;;;0.00;0.00;;;;;;;15.18;65.11;102599.28;2084632;28;20059;-74
2022/11/26 01:42:24;;;;;;;0.00;0.00;;;;;;;15.17;65.15;102595.00;2080296;28;20081;-74
2022/11/26 01:43:32;;;;;;;0.00;0.00;;;;;;;15.19;65.10;102611.75;2073896;28;20081;-74
2022/11/26 01:44:36;;;;;;;0.00;0.00;;;;;;;15.20;65.02;102601.69;2075179;28;20046;-74
2022/11/26 01:45:38;;;;;;;0.00;0.00;;;;;;;15.19;64.98;102600.88;2084692;28;20160;-74
2022/11/26 01:46:41;;;;;;;0.00;0.00;;;;;;;15.20;65.15;102607.94;2079810;28;20053;-74
2022/11/26 01:47:47;;;;;;;0.00;0.00;;;;;;;15.20;65.03;102602.50;2082100;28;20506;-74
2022/11/26 01:48:50;;;;;;;0.00;0.00;;;;;;;15.21;64.99;102603.28;2084224;28;20044;-74
2022/11/26 01:50:29;;;;;;;0.00;0.00;;;;;;;15.13;65.15;102604.91;2081563;28;20053;-74
2022/11/26 01:51:32;;;;;;;0.00;0.00;;;;;;;15.14;64.98;102603.81;2087963;28;20045;-74
2022/11/26 01:52:34;;;;;;;0.00;0.00;;;;;;;15.17;64.86;102602.34;2083654;28;20067;-74
2022/11/26 01:53:45;;;;;;;0.00;0.00;;;;;;;15.18;64.83;102604.75;2081893;28;20072;-74
2022/11/26 01:54:48;;;;;;;0.00;0.00;;;;;;;15.17;64.71;102608.59;2083145;28;20439;-74
2022/11/26 01:55:54;;;;;;;0.00;0.00;;;;;;;15.18;65.07;102604.75;2073536;28;20053;-75
2022/11/26 01:57:04;;;;;;;0.00;0.00;;;;;;;15.17;64.83;102605.88;2077462;28;20516;-74
2022/11/26 01:58:10;;;;;;;0.00;0.00;;;;;;;15.15;64.90;102599.94;2083871;28;20068;-74
2022/11/26 01:59:21;;;;;;;0.00;0.00;;;;;;;15.15;64.89;102594.50;2081090;28;20136;-74
2022/11/26 02:00:23;;;;;;;;;;;;;;;14.96;65.29;102602.28;2074060;28;20111;-75
2022/11/26 02:01:26;;;;;;;0.00;0.00;;;;;;;15.06;65.00;102596.50;2078667;28;19925;-74
2022/11/26 02:02:29;;;;;;;0.00;0.00;;;;;;;15.11;65.07;102595.50;2080186;28;20061;-74
2022/11/26 02:03:39;;;;;;;0.00;0.00;;;;;;;15.13;64.74;102591.31;2079362;28;20179;-74
2022/11/26 02:04:51;;;;;;;0.00;0.00;;;;;;;15.12;64.67;102594.38;2074068;28;20624;-74
2022/11/26 02:05:57;;;;;;;0.00;0.00;;;;;;;15.12;64.79;102602.53;2076582;28;20053;-74
2022/11/26 02:07:01;;;;;;;0.00;0.00;;;;;;;15.12;64.87;102600.63;2080258;28;20121;-75
2022/11/26 02:08:04;;;;;;;0.00;0.00;;;;;;;15.14;64.75;102601.09;2082566;28;20803;-74
2022/11/26 02:09:09;;;;;;;0.00;0.00;;;;;;;15.15;64.87;102608.13;2080570;28;20190;-74
2022/11/26 02:10:12;;;;;;;0.00;0.00;;;;;;;15.15;64.84;102599.16;2077465;28;20483;-74
2022/11/26 02:11:18;;;;;;;0.00;0.00;;;;;;;15.15;64.72;102597.22;2070569;28;20057;-74
2022/11/26 02:12:21;;;;;;;0.00;0.00;;;;;;;15.14;64.63;102597.56;2079601;28;20102;-74
2022/11/26 02:13:25;;;;;;;0.00;0.00;;;;;;;15.15;64.85;102601.88;2084493;28;20057;-74
2022/11/26 02:14:34;;;;;;;0.00;0.00;;;;;;;15.15;64.62;102604.59;2077045;28;20057;-74
2022/11/26 02:15:47;;;;;;;0.00;0.00;;;;;;;15.10;64.73;102600.13;2076646;28;20132;-73
2022/11/26 02:17:06;;;;;;;0.00;0.00;;;;;;;15.08;65.00;102598.88;2082408;28;20421;-74
2022/11/26 02:18:08;;;;;;;0.00;0.00;;;;;;;15.11;64.88;102603.66;2085749;28;20470;-74
2022/11/26 02:19:45;;;;;;;0.00;0.00;;;;;;;15.05;64.51;102605.75;2083759;28;20131;-74
2022/11/26 02:20:53;;;;;;;0.00;0.00;;;;;;;15.07;64.77;102598.06;2091377;28;20523;-74
2022/11/26 02:22:09;;;;;;;0.00;0.00;;;;;;;15.07;64.57;102602.72;2081457;28;20052;-74
2022/11/26 02:23:47;;;;;;;0.00;0.00;;;;;;;15.02;64.70;102595.53;2086191;28;20494;-74
2022/11/26 02:24:59;;;;;;;0.00;0.00;;;;;;;15.05;64.70;102599.53;2091084;28;20101;-74
2022/11/26 02:26:38;;;;;;;0.00;0.00;;;;;;;15.01;64.73;102599.38;2092037;28;20052;-74
2022/11/26 02:28:14;;;;;;;0.00;0.00;;;;;;;14.99;64.75;102598.91;2088341;28;20078;-74
2022/11/26 02:29:22;;;;;;;0.00;0.00;;;;;;;15.01;64.91;102597.44;2090640;28;20056;-74
2022/11/26 02:30:29;;;;;;;0.00;0.00;;;;;;;15.05;64.65;102599.53;2089129;28;20052;-74
2022/11/26 02:31:38;;;;;;;0.00;0.00;;;;;;;15.05;64.60;102600.31;2082678;28;20064;-74
2022/11/26 02:32:56;;;;;;;0.00;0.00;;;;;;;15.00;64.55;102592.34;2079250;28;20128;-74
2022/11/26 02:34:10;;;;;;;0.00;0.00;;;;;;;15.02;64.61;102599.06;2088491;28;20600;-75
2022/11/26 02:35:20;;;;;;;0.00;0.00;;;;;;;15.04;64.57;102604.19;2086120;28;20061;-74
2022/11/26 02:36:26;;;;;;;0.00;0.00;;;;;;;15.04;64.63;102598.72;2077896;28;20049;-74
2022/11/26 02:37:33;;;;;;;0.00;0.00;;;;;;;15.06;64.47;102601.94;2087049;28;20599;-74
2022/11/26 02:38:37;;;;;;;0.00;0.00;;;;;;;15.07;64.57;102608.16;2084038;28;20452;-74
2022/11/26 02:39:39;;;;;;;0.00;0.00;;;;;;;15.07;64.34;102608.97;2086801;28;20049;-74
2022/11/26 02:40:41;;;;;;;0.00;0.00;;;;;;;15.07;64.67;102606.22;2091340;28;20045;-74
2022/11/26 02:41:46;;;;;;;0.00;0.00;;;;;;;15.09;64.42;102605.91;2078882;28;20079;-74
2022/11/26 02:42:47;;;;;;;0.00;0.00;;;;;;;15.07;64.48;102600.78;2081155;28;20861;-74
2022/11/26 02:43:50;;;;;;;0.00;0.00;;;;;;;15.08;64.39;102610.53;2084024;28;20134;-74
2022/11/26 02:44:56;;;;;;;0.00;0.00;;;;;;;15.09;64.48;102609.44;2076543;28;20087;-74
2022/11/26 02:46:05;;;;;;;0.00;0.00;;;;;;;15.08;64.14;102613.25;2078336;28;20791;-74
2022/11/26 02:47:12;;;;;;;0.00;0.00;;;;;;;15.08;64.41;102604.31;2085795;28;20177;-74
2022/11/26 02:48:21;;;;;;;0.00;0.00;;;;;;;15.08;64.67;102604.31;2086340;28;20060;-74
2022/11/26 02:49:23;;;;;;;0.00;0.00;;;;;;;15.07;64.25;102613.59;2084889;28;20128;-74
2022/11/26 02:50:30;;;;;;;0.00;0.00;;;;;;;15.09;64.30;102609.44;2085203;28;20524;-74
2022/11/26 02:51:32;;;;;;;0.00;0.00;;;;;;;15.09;64.21;102614.06;2083289;28;20563;-74
2022/11/26 02:52:39;;;;;;;0.00;0.00;;;;;;;15.08;64.23;102618.69;2090680;28;20052;-74
2022/11/26 02:53:42;;;;;;;0.00;0.00;;;;;;;15.09;63.98;102617.59;2089649;28;20053;-74
2022/11/26 02:54:46;;;;;;;0.00;0.00;;;;;;;15.08;63.99;102621.41;2083967;28;20095;-74
2022/11/26 02:55:51;;;;;;;0.00;0.00;;;;;;;15.10;64.18;102624.63;2073793;28;20061;-74
2022/11/26 02:56:54;;;;;;;0.00;0.00;;;;;;;15.08;64.18;102626.88;2084402;28;20049;-74
2022/11/26 02:57:57;;;;;;;0.00;0.00;;;;;;;15.08;64.09;102626.88;2090623;28;20049;-74
2022/11/26 02:59:00;;;;;;;0.00;0.00;;;;;;;15.09;64.06;102630.38;2090110;28;20064;-74
2022/11/26 03:00:04;;;;;;;0.00;0.00;;;;;;;15.10;63.96;102629.25;2093447;28;20552;-74
2022/11/26 03:01:13;;;;;;;0.00;0.00;;;;;;;15.09;64.07;102638.56;2089294;28;20049;-74
2022/11/26 03:02:23;;;;;;;0.00;0.00;;;;;;;15.07;63.87;102630.72;2089661;28;20650;-74
2022/11/26 03:03:29;;;;;;;0.00;0.00;;;;;;;15.06;64.13;102633.78;2080064;28;20088;-74
2022/11/26 03:04:36;;;;;;;0.00;0.00;;;;;;;15.07;63.98;102636.16;2083962;28;20059;-74
2022/11/26 03:05:42;;;;;;;0.00;0.00;;;;;;;15.08;64.13;102637.75;2088828;28;20134;-74
2022/11/26 03:06:45;;;;;;;0.00;0.00;;;;;;;15.08;63.89;102640.47;2083262;28;20088;-74
2022/11/26 03:07:51;;;;;;;0.00;0.00;;;;;;;15.09;63.79;102644.81;2084048;28;20041;-74
2022/11/26 03:08:54;;;;;;;0.00;0.00;;;;;;;15.07;63.70;102633.44;2092994;28;20131;-74
2022/11/26 03:09:59;;;;;;;0.00;0.00;;;;;;;15.08;63.98;102632.31;2083847;28;20064;-74
2022/11/26 03:11:01;;;;;;;0.00;0.00;;;;;;;15.08;63.77;102634.25;2081513;28;20064;-74
2022/11/26 03:12:04;;;;;;;0.00;0.00;;;;;;;15.09;63.83;102638.56;2078804;28;20881;-74
2022/11/26 03:13:06;;;;;;;0.00;0.00;;;;;;;15.09;63.83;102644.81;2080381;28;20060;-74
2022/11/26 03:14:08;;;;;;;0.00;0.00;;;;;;;15.09;63.71;102644.81;2085768;28;20060;-74
2022/11/26 03:15:11;;;;;;;0.00;0.00;;;;;;;15.08;63.59;102643.19;2093158;28;20052;-74
2022/11/26 03:16:14;;;;;;;0.00;0.00;;;;;;;15.10;63.54;102651.03;2089574;28;20059;-74
2022/11/26 03:17:18;;;;;;;0.00;0.00;;;;;;;15.10;63.74;102645.56;2089018;28;20060;-74
2022/11/26 03:18:20;;;;;;;0.00;0.00;;;;;;;15.09;64.16;102646.72;2084799;28;20063;-74
2022/11/26 03:19:22;;;;;;;0.00;0.00;;;;;;;15.09;63.44;102658.41;2083590;28;20060;-74
2022/11/26 03:20:24;;;;;;;0.00;0.00;;;;;;;15.09;63.53;102652.97;2076898;28;20064;-74
2022/11/26 03:21:27;;;;;;;0.00;0.00;;;;;;;15.10;63.68;102651.81;2075692;28;20061;-74
2022/11/26 03:22:29;;;;;;;0.00;0.00;;;;;;;15.09;63.46;102655.69;2089936;28;20060;-72
2022/11/26 03:23:32;;;;;;;0.00;0.00;;;;;;;15.10;63.59;102661.91;2093438;28;20063;-72
2022/11/26 03:24:34;;;;;;;0.00;0.00;;;;;;;15.10;63.50;102667.34;2086729;28;20044;-72
2022/11/26 03:25:37;;;;;;;0.00;0.00;;;;;;;15.10;63.43;102668.16;2078373;28;20613;-72
2022/11/26 03:26:39;;;;;;;0.00;0.00;;;;;;;15.09;63.50;102661.13;2070051;28;20049;-72
2022/11/26 03:27:42;;;;;;;0.00;0.00;;;;;;;15.11;63.44;102668.97;2072891;28;20049;-72
2022/11/26 03:28:43;;;;;;;0.00;0.00;;;;;;;15.10;63.56;102659.19;2089899;28;20091;-72
2022/11/26 03:29:46;;;;;;;0.00;0.00;;;;;;;15.10;63.55;102665.44;2089480;28;20803;-72
2022/11/26 03:30:48;;;;;;;0.00;0.00;;;;;;;15.10;63.74;102667.34;2078985;28;20057;-72
2022/11/26 03:31:52;;;;;;;0.00;0.00;;;;;;;15.11;63.42;102668.97;2075283;28;20060;-73
2022/11/26 03:32:54;;;;;;;0.00;0.00;;;;;;;15.09;63.48;102665.75;2076228;28;20053;-74
2022/11/26 03:33:57;;;;;;;0.00;0.00;;;;;;;15.10;63.45;102665.44;2086228;28;20057;-74
2022/11/26 03:34:58;;;;;;;0.00;0.00;;;;;;;15.10;63.32;102672.78;2079390;28;20747;-74
2022/11/26 03:36:01;;;;;;;0.00;0.00;;;;;;;15.06;63.40;102666.41;2072931;28;20058;-74
2022/11/26 03:37:03;;;;;;;0.00;0.00;;;;;;;15.09;63.42;102663.03;2078989;28;20420;-74
2022/11/26 03:38:06;;;;;;;0.00;0.00;;;;;;;15.10;63.47;102670.88;2083265;28;20056;-74
2022/11/26 03:39:07;;;;;;;0.00;0.00;;;;;;;15.10;63.44;102673.59;2096678;28;20515;-74
2022/11/26 03:40:11;;;;;;;0.00;0.00;;;;;;;15.10;63.49;102676.31;2094845;28;20052;-74
2022/11/26 03:41:12;;;;;;;0.00;0.00;;;;;;;15.10;63.43;102681.75;2086779;28;20065;-74
2022/11/26 03:42:15;;;;;;;0.00;0.00;;;;;;;15.09;63.25;102680.16;2085197;28;20104;-74
2022/11/26 03:43:17;;;;;;;0.00;0.00;;;;;;;15.09;63.39;102679.34;2088679;28;20053;-74
2022/11/26 03:44:19;;;;;;;0.00;0.00;;;;;;;15.11;63.44;102677.13;2093437;28;20067;-74
2022/11/26 03:45:21;;;;;;;0.00;0.00;;;;;;;15.09;63.36;102677.44;2080189;28;20099;-73
2022/11/26 03:46:24;;;;;;;0.00;0.00;;;;;;;15.06;63.16;102677.28;2083439;28;20057;-74
2022/11/26 03:47:27;;;;;;;0.00;0.00;;;;;;;15.10;63.46;102686.38;2080560;28;20092;-73
2022/11/26 03:48:30;;;;;;;0.00;0.00;;;;;;;15.09;63.26;102682.06;2074363;28;20064;-73
2022/11/26 03:49:32;;;;;;;0.00;0.00;;;;;;;15.08;63.32;102678.56;2071228;28;20049;-74
2022/11/26 03:50:34;;;;;;;0.00;0.00;;;;;;;15.10;63.21;102683.66;2076652;28;20868;-73
2022/11/26 03:51:36;;;;;;;0.00;0.00;;;;;;;15.09;63.20;102685.59;2093275;28;20057;-73
2022/11/26 03:52:39;;;;;;;0.00;0.00;;;;;;;15.09;63.15;102680.16;2089236;28;20115;-73
2022/11/26 03:53:41;;;;;;;0.00;0.00;;;;;;;15.10;63.17;102683.66;2090476;28;20064;-73
2022/11/26 03:54:43;;;;;;;0.00;0.00;;;;;;;15.09;63.04;102688.31;2091558;28;20804;-74
2022/11/26 03:55:46;;;;;;;0.00;0.00;;;;;;;15.09;63.11;102691.03;2084857;28;20057;-74
2022/11/26 03:56:49;;;;;;;0.00;0.00;;;;;;;15.08;63.30;102686.72;2085441;28;20553;-74
2022/11/26 03:57:50;;;;;;;0.00;0.00;;;;;;;15.09;63.17;102688.31;2091364;28;20049;-74
2022/11/26 03:58:53;;;;;;;0.00;0.00;;;;;;;15.10;63.08;102689.91;2092232;28;20049;-74
2022/11/26 03:59:56;;;;;;;0.00;0.00;;;;;;;15.09;63.25;102685.59;2083995;28;20053;-73
2022/11/26 04:00:58;;;;;;;0.00;0.00;;;;;;;15.09;63.19;102682.06;2082988;28;20056;-74
2022/11/26 04:02:00;;;;;;;0.00;0.00;;;;;;;15.09;62.92;102684.81;2073919;28;20049;-74
2022/11/26 04:03:05;;;;;;;0.00;0.00;;;;;;;15.10;63.18;102686.38;2078738;28;20042;-74
2022/11/26 04:04:06;;;;;;;0.00;0.00;;;;;;;15.08;63.22;102686.72;2085223;28;20048;-74
2022/11/26 04:05:09;;;;;;;0.00;0.00;;;;;;;15.08;63.12;102680.50;2085176;28;20052;-74
2022/11/26 04:06:11;;;;;;;0.00;0.00;;;;;;;15.09;62.95;102682.06;2096194;28;20057;-74
2022/11/26 04:07:14;;;;;;;0.00;0.00;;;;;;;15.08;63.05;102684.00;2091289;28;20436;-73
2022/11/26 04:08:16;;;;;;;0.00;0.00;;;;;;;15.09;63.15;102693.78;2093103;28;20057;-74
2022/11/26 04:09:19;;;;;;;0.00;0.00;;;;;;;15.09;63.05;102690.25;2089132;28;20056;-74
2022/11/26 04:10:21;;;;;;;0.00;0.00;;;;;;;15.08;62.76;102691.38;2088853;28;20096;-74
2022/11/26 04:11:23;;;;;;;0.00;0.00;;;;;;;15.08;63.03;102686.72;2084904;28;20076;-73
2022/11/26 04:12:25;;;;;;;0.00;0.00;;;;;;;15.07;62.80;102696.00;2079226;28;20539;-73
2022/11/26 04:13:28;;;;;;;0.00;0.00;;;;;;;15.08;63.02;102681.28;2077376;28;20061;-74
2022/11/26 04:14:29;;;;;;;0.00;0.00;;;;;;;15.08;62.77;102686.72;2072408;28;20588;-74
2022/11/26 04:15:32;;;;;;;0.00;0.00;;;;;;;15.08;62.93;102691.38;2076811;28;20145;-74
2022/11/26 04:16:34;;;;;;;0.00;0.00;;;;;;;15.07;63.03;102695.19;2073123;28;20050;-74
2022/11/26 04:17:37;;;;;;;0.00;0.00;;;;;;;15.07;62.93;102687.84;2074020;28;20062;-74
2022/11/26 04:18:40;;;;;;;0.00;0.00;;;;;;;15.08;62.78;102684.00;2080084;28;20053;-74
2022/11/26 04:19:42;;;;;;;0.00;0.00;;;;;;;15.07;62.72;102690.56;2084533;28;20075;-74
2022/11/26 04:20:44;;;;;;;0.00;0.00;;;;;;;15.09;62.94;102698.41;2079339;28;20053;-74
2022/11/26 04:21:54;;;;;;;0.00;0.00;;;;;;;15.06;62.88;102691.69;2083755;28;20053;-74
2022/11/26 04:22:56;;;;;;;0.00;0.00;;;;;;;15.06;62.75;102691.69;2092923;28;20086;-74
2022/11/26 04:23:59;;;;;;;0.00;0.00;;;;;;;15.07;62.69;102689.75;2094425;28;20056;-74
2022/11/26 04:25:00;;;;;;;0.00;0.00;;;;;;;15.06;62.85;102694.41;2080063;28;20085;-74
2022/11/26 04:26:03;;;;;;;0.00;0.00;;;;;;;15.07;62.59;102689.75;2074983;28;20065;-74
2022/11/26 04:27:05;;;;;;;0.00;0.00;;;;;;;15.06;63.10;102691.69;2082089;28;20081;-74
2022/11/26 04:28:08;;;;;;;0.00;0.00;;;;;;;15.07;62.67;102689.75;2083138;28;20057;-74
2022/11/26 04:29:10;;;;;;;0.00;0.00;;;;;;;15.07;62.80;102689.75;2076192;28;20085;-73
2022/11/26 04:30:14;;;;;;;0.00;0.00;;;;;;;15.07;62.65;102687.84;2087597;28;20092;-74
2022/11/26 04:31:16;;;;;;;0.00;0.00;;;;;;;15.07;62.50;102690.56;2079368;28;20087;-74
2022/11/26 04:32:19;;;;;;;0.00;0.00;;;;;;;15.07;63.07;102690.56;2071173;28;20109;-74
2022/11/26 04:33:20;;;;;;;0.00;0.00;;;;;;;15.07;62.71;102696.00;2076797;28;20073;-74
2022/11/26 04:34:24;;;;;;;0.00;0.00;;;;;;;15.09;62.58;102698.41;2080371;28;20529;-74
2022/11/26 04:35:26;;;;;;;0.00;0.00;;;;;;;15.07;62.67;102706.09;2090109;28;20049;-73
2022/11/26 04:36:29;;;;;;;0.00;0.00;;;;;;;15.06;62.67;102699.88;2096337;28;20063;-74
2022/11/26 04:37:31;;;;;;;0.00;0.00;;;;;;;15.07;62.79;102709.59;2090662;28;20084;-73
2022/11/26 04:38:34;;;;;;;0.00;0.00;;;;;;;15.07;62.68;102712.34;2087040;28;20060;-73
2022/11/26 04:39:35;;;;;;;0.00;0.00;;;;;;;15.07;62.42;102706.88;2077188;28;20111;-74
2022/11/26 04:40:38;;;;;;;0.00;0.00;;;;;;;15.07;62.55;102706.88;2084926;28;20057;-74
2022/11/26 04:41:41;;;;;;;0.00;0.00;;;;;;;15.07;62.53;102706.09;2084677;28;21083;-73
2022/11/26 04:42:44;;;;;;;0.00;0.00;;;;;;;15.06;62.64;102710.75;2082891;28;20076;-73
2022/11/26 04:43:46;;;;;;;0.00;0.00;;;;;;;15.06;62.35;102710.75;2088470;28;20064;-73
2022/11/26 04:44:48;;;;;;;0.00;0.00;;;;;;;15.06;62.64;102708.03;2089567;28;20052;-73
2022/11/26 04:45:50;;;;;;;0.00;0.00;;;;;;;15.06;62.48;102710.75;2091289;28;20071;-73
2022/11/26 04:46:53;;;;;;;0.00;0.00;;;;;;;15.07;62.30;102711.53;2092273;28;20048;-74
2022/11/26 04:47:55;;;;;;;0.00;0.00;;;;;;;15.06;62.73;102704.50;2088539;28;20091;-74
2022/11/26 04:48:57;;;;;;;0.00;0.00;;;;;;;15.06;62.29;102705.31;2093746;28;20072;-74
2022/11/26 04:50:00;;;;;;;0.00;0.00;;;;;;;15.07;62.38;102708.81;2091636;28;20052;-74
2022/11/26 04:51:03;;;;;;;0.00;0.00;;;;;;;15.05;62.50;102709.13;2088971;28;20052;-73
2022/11/26 04:52:05;;;;;;;0.00;0.00;;;;;;;15.05;62.54;102709.13;2095667;28;20048;-74
2022/11/26 04:53:08;;;;;;;0.00;0.00;;;;;;;15.06;62.53;102709.94;2084226;28;20057;-74
2022/11/26 04:54:09;;;;;;;0.00;0.00;;;;;;;15.05;62.60;102709.13;2073579;28;20080;-74
2022/11/26 04:55:15;;;;;;;0.00;0.00;;;;;;;15.05;62.13;102708.34;2081162;28;20148;-73
2022/11/26 04:56:17;;;;;;;0.00;0.00;;;;;;;15.05;62.46;102720.00;2082282;28;20064;-73
2022/11/26 04:57:19;;;;;;;0.00;0.00;;;;;;;15.05;62.44;102713.78;2082459;28;20057;-73
2022/11/26 04:58:21;;;;;;;0.00;0.00;;;;;;;15.05;62.33;102717.28;2091042;28;20531;-74
2022/11/26 04:59:24;;;;;;;0.00;0.00;;;;;;;15.04;62.22;102718.44;2080216;28;20064;-73
2022/11/26 05:00:26;;;;;;;0.00;0.00;;;;;;;15.05;62.12;102719.22;2080014;28;20061;-73
2022/11/26 05:01:28;;;;;;;0.00;0.00;;;;;;;15.05;62.42;102719.22;2081192;28;20864;-73